sensor_id;sensor_type;location;lat;lon;timestamp;pressure;altitude;pressure_sealevel;temperature;humidity
2188;BME280;1100;52.014;8.540;2023-05-22T00:00:05;100038.91;;;18.05;68.95
2188;BME280;1100;52.014;8.540;2023-05-22T00:02:36;100033.06;;;18.09;69.03
2188;BME280;1100;52.014;8.540;2023-05-22T00:05:11;100040.06;;;18.13;68.99
2188;BME280;1100;52.014;8.540;2023-05-22T00:07:38;100038.00;;;18.14;69.16
2188;BME280;1100;52.014;8.540;2023-05-22T00:10:04;100037.75;;;18.12;69.18
2188;BME280;1100;52.014;8.540;2023-05-22T00:12:30;100037.13;;;18.08;68.93
2188;BME280;1100;52.014;8.540;2023-05-22T00:14:55;100038.63;;;18.03;69.02
2188;BME280;1100;52.014;8.540;2023-05-22T00:17:22;100037.28;;;17.98;69.03
2188;BME280;1100;52.014;8.540;2023-05-22T00:19:47;100042.06;;;17.92;69.02
2188;BME280;1100;52.014;8.540;2023-05-22T00:22:13;100035.34;;;17.84;69.47
2188;BME280;1100;52.014;8.540;2023-05-22T00:24:38;100041.66;;;17.78;69.50
2188;BME280;1100;52.014;8.540;2023-05-22T00:27:04;100039.28;;;17.71;69.46
2188;BME280;1100;52.014;8.540;2023-05-22T00:29:29;100037.94;;;17.66;69.64
2188;BME280;1100;52.014;8.540;2023-05-22T00:31:55;100037.09;;;17.60;69.55
2188;BME280;1100;52.014;8.540;2023-05-22T00:34:20;100027.81;;;17.54;69.69
2188;BME280;1100;52.014;8.540;2023-05-22T00:36:45;100023.06;;;17.45;69.56
2188;BME280;1100;52.014;8.540;2023-05-22T00:39:11;100027.84;;;17.39;69.83
2188;BME280;1100;52.014;8.540;2023-05-22T00:41:36;100018.25;;;17.30;69.96
2188;BME280;1100;52.014;8.540;2023-05-22T00:44:02;100018.69;;;17.23;69.63
2188;BME280;1100;52.014;8.540;2023-05-22T00:46:28;100019.59;;;17.14;69.79
2188;BME280;1100;52.014;8.540;2023-05-22T00:48:53;100017.13;;;17.07;69.65
2188;BME280;1100;52.014;8.540;2023-05-22T00:51:23;100012.47;;;17.04;69.97
2188;BME280;1100;52.014;8.540;2023-05-22T00:53:49;100020.03;;;16.98;69.86
2188;BME280;1100;52.014;8.540;2023-05-22T00:56:15;100013.00;;;16.87;69.78
2188;BME280;1100;52.014;8.540;2023-05-22T00:58:41;100016.22;;;16.80;69.71
2188;BME280;1100;52.014;8.540;2023-05-22T01:01:09;100022.97;;;16.73;69.85
2188;BME280;1100;52.014;8.540;2023-05-22T01:03:36;100027.25;;;16.68;70.03
2188;BME280;1100;52.014;8.540;2023-05-22T01:06:09;100025.09;;;16.63;70.02
2188;BME280;1100;52.014;8.540;2023-05-22T01:08:34;100026.84;;;16.61;70.01
2188;BME280;1100;52.014;8.540;2023-05-22T01:11:04;100017.88;;;16.56;70.26
2188;BME280;1100;52.014;8.540;2023-05-22T01:17:10;100025.69;;;16.52;70.28
2188;BME280;1100;52.014;8.540;2023-05-22T01:19:51;100020.06;;;16.52;70.48
2188;BME280;1100;52.014;8.540;2023-05-22T01:22:29;100020.06;;;16.52;70.54
2188;BME280;1100;52.014;8.540;2023-05-22T01:27:46;100019.19;;;16.46;70.79
2188;BME280;1100;52.014;8.540;2023-05-22T01:32:59;100013.88;;;16.33;70.78
2188;BME280;1100;52.014;8.540;2023-05-22T01:35:26;100018.63;;;16.27;70.85
2188;BME280;1100;52.014;8.540;2023-05-22T01:37:53;100016.94;;;16.20;70.72
2188;BME280;1100;52.014;8.540;2023-05-22T01:40:19;100012.00;;;16.15;70.96
2188;BME280;1100;52.014;8.540;2023-05-22T01:42:45;100011.13;;;16.09;71.04
2188;BME280;1100;52.014;8.540;2023-05-22T01:45:10;100007.44;;;16.02;71.08
2188;BME280;1100;52.014;8.540;2023-05-22T01:47:36;100006.06;;;15.98;71.13
2188;BME280;1100;52.014;8.540;2023-05-22T01:50:02;100002.94;;;15.95;71.17
2188;BME280;1100;52.014;8.540;2023-05-22T01:52:38;99996.25;;;15.93;71.37
2188;BME280;1100;52.014;8.540;2023-05-22T01:55:10;100004.19;;;15.94;71.45
2188;BME280;1100;52.014;8.540;2023-05-22T02:00:17;100007.78;;;15.95;72.27
2188;BME280;1100;52.014;8.540;2023-05-22T02:02:47;100010.88;;;15.97;72.13
2188;BME280;1100;52.014;8.540;2023-05-22T02:05:15;100006.06;;;15.98;72.21
2188;BME280;1100;52.014;8.540;2023-05-22T02:07:42;100007.59;;;15.99;72.30
2188;BME280;1100;52.014;8.540;2023-05-22T02:10:09;100008.09;;;15.97;72.23
2188;BME280;1100;52.014;8.540;2023-05-22T02:12:35;100006.06;;;15.98;72.28
2188;BME280;1100;52.014;8.540;2023-05-22T02:15:01;100003.09;;;16.01;72.25
2188;BME280;1100;52.014;8.540;2023-05-22T02:17:27;99999.97;;;15.99;72.21
2188;BME280;1100;52.014;8.540;2023-05-22T02:19:52;100002.00;;;15.99;72.28
2188;BME280;1100;52.014;8.540;2023-05-22T02:22:18;100001.38;;;15.94;72.09
2188;BME280;1100;52.014;8.540;2023-05-22T02:24:47;99997.81;;;15.94;72.12
2188;BME280;1100;52.014;8.540;2023-05-22T02:27:13;99992.69;;;15.92;72.19
2188;BME280;1100;52.014;8.540;2023-05-22T02:29:39;99984.75;;;15.91;72.47
2188;BME280;1100;52.014;8.540;2023-05-22T02:32:04;99984.56;;;15.94;72.65
2188;BME280;1100;52.014;8.540;2023-05-22T02:34:30;99989.06;;;16.01;72.61
2188;BME280;1100;52.014;8.540;2023-05-22T02:36:59;99985.19;;;15.99;72.24
2188;BME280;1100;52.014;8.540;2023-05-22T02:39:27;99982.84;;;15.97;72.31
2188;BME280;1100;52.014;8.540;2023-05-22T02:41:53;99983.78;;;15.94;72.52
2188;BME280;1100;52.014;8.540;2023-05-22T02:44:18;99972.00;;;15.90;72.42
2188;BME280;1100;52.014;8.540;2023-05-22T02:46:43;99979.63;;;15.89;72.51
2188;BME280;1100;52.014;8.540;2023-05-22T02:49:09;99974.81;;;15.90;72.65
2188;BME280;1100;52.014;8.540;2023-05-22T02:51:35;99973.25;;;15.89;72.73
2188;BME280;1100;52.014;8.540;2023-05-22T02:54:00;99968.13;;;15.87;72.57
2188;BME280;1100;52.014;8.540;2023-05-22T02:56:26;99973.91;;;15.84;72.48
2188;BME280;1100;52.014;8.540;2023-05-22T02:58:53;99977.19;;;15.82;72.65
2188;BME280;1100;52.014;8.540;2023-05-22T03:01:18;99975.34;;;15.79;72.60
2188;BME280;1100;52.014;8.540;2023-05-22T03:03:43;99977.69;;;15.80;72.80
2188;BME280;1100;52.014;8.540;2023-05-22T03:06:09;99973.63;;;15.81;72.81
2188;BME280;1100;52.014;8.540;2023-05-22T03:08:34;99970.81;;;15.81;72.87
2188;BME280;1100;52.014;8.540;2023-05-22T03:11:02;99977.97;;;15.82;72.73
2188;BME280;1100;52.014;8.540;2023-05-22T03:13:28;99968.31;;;15.84;72.77
2188;BME280;1100;52.014;8.540;2023-05-22T03:15:53;99963.66;;;15.80;72.84
2188;BME280;1100;52.014;8.540;2023-05-22T03:18:18;99956.69;;;15.76;72.95
2188;BME280;1100;52.014;8.540;2023-05-22T03:20:44;99965.59;;;15.74;72.66
2188;BME280;1100;52.014;8.540;2023-05-22T03:23:10;99962.47;;;15.72;72.70
2188;BME280;1100;52.014;8.540;2023-05-22T03:25:35;99959.41;;;15.70;72.86
2188;BME280;1100;52.014;8.540;2023-05-22T03:28:01;99958.63;;;15.69;73.02
2188;BME280;1100;52.014;8.540;2023-05-22T03:30:26;99961.91;;;15.68;72.90
2188;BME280;1100;52.014;8.540;2023-05-22T03:32:51;99965.00;;;15.70;72.88
2188;BME280;1100;52.014;8.540;2023-05-22T03:35:17;99960.94;;;15.71;73.07
2188;BME280;1100;52.014;8.540;2023-05-22T03:37:44;99964.53;;;15.72;73.09
2188;BME280;1100;52.014;8.540;2023-05-22T03:40:10;99960.75;;;15.75;73.16
2188;BME280;1100;52.014;8.540;2023-05-22T03:42:36;99959.97;;;15.74;73.19
2188;BME280;1100;52.014;8.540;2023-05-22T03:45:01;99962.47;;;15.72;73.02
2188;BME280;1100;52.014;8.540;2023-05-22T03:47:26;99960.94;;;15.71;73.11
2188;BME280;1100;52.014;8.540;2023-05-22T03:49:52;99961.91;;;15.68;73.12
2188;BME280;1100;52.014;8.540;2023-05-22T03:52:17;99959.25;;;15.64;73.17
2188;BME280;1100;52.014;8.540;2023-05-22T03:54:42;99958.50;;;15.64;73.07
2188;BME280;1100;52.014;8.540;2023-05-22T03:57:07;99949.50;;;15.60;73.07
2188;BME280;1100;52.014;8.540;2023-05-22T03:59:33;99953.56;;;15.59;73.30
2188;BME280;1100;52.014;8.540;2023-05-22T04:01:58;99949.22;;;15.57;73.36
2188;BME280;1100;52.014;8.540;2023-05-22T04:04:26;99944.09;;;15.56;73.45
2188;BME280;1100;52.014;8.540;2023-05-22T04:06:52;99948.91;;;15.55;73.06
2188;BME280;1100;52.014;8.540;2023-05-22T04:09:17;99954.50;;;15.55;73.30
2188;BME280;1100;52.014;8.540;2023-05-22T04:11:42;99952.97;;;15.54;73.33
2188;BME280;1100;52.014;8.540;2023-05-22T04:14:08;99954.19;;;15.53;73.41
2188;BME280;1100;52.014;8.540;2023-05-22T04:16:33;99952.97;;;15.54;73.32
2188;BME280;1100;52.014;8.540;2023-05-22T04:18:59;99949.38;;;15.54;73.30
2188;BME280;1100;52.014;8.540;2023-05-22T04:21:28;99954.50;;;15.55;73.58
2188;BME280;1100;52.014;8.540;2023-05-22T04:23:54;99957.63;;;15.57;73.56
2188;BME280;1100;52.014;8.540;2023-05-22T04:26:19;99959.94;;;15.59;73.58
2188;BME280;1100;52.014;8.540;2023-05-22T04:28:45;99952.59;;;15.62;73.70
2188;BME280;1100;52.014;8.540;2023-05-22T04:31:11;99959.00;;;15.62;73.57
2188;BME280;1100;52.014;8.540;2023-05-22T04:33:38;99947.56;;;15.66;73.70
2188;BME280;1100;52.014;8.540;2023-05-22T04:36:04;99951.16;;;15.66;73.73
2188;BME280;1100;52.014;8.540;2023-05-22T04:38:31;99957.34;;;15.70;73.89
2188;BME280;1100;52.014;8.540;2023-05-22T04:41:00;99956.13;;;15.72;73.75
2188;BME280;1100;52.014;8.540;2023-05-22T04:43:26;99966.84;;;15.73;73.90
2188;BME280;1100;52.014;8.540;2023-05-22T04:45:51;99974.00;;;15.74;73.73
2188;BME280;1100;52.014;8.540;2023-05-22T04:48:18;99966.06;;;15.73;73.78
2188;BME280;1100;52.014;8.540;2023-05-22T04:50:43;99967.13;;;15.75;73.95
2188;BME280;1100;52.014;8.540;2023-05-22T04:53:10;99976.78;;;15.74;73.97
2188;BME280;1100;52.014;8.540;2023-05-22T04:55:36;99979.13;;;15.76;73.76
2188;BME280;1100;52.014;8.540;2023-05-22T04:58:02;99968.69;;;15.76;73.99
2188;BME280;1100;52.014;8.540;2023-05-22T05:00:27;99974.09;;;15.80;73.77
2188;BME280;1100;52.014;8.540;2023-05-22T05:02:53;99976.41;;;15.81;73.96
2188;BME280;1100;52.014;8.540;2023-05-22T05:05:18;99972.38;;;15.82;73.94
2188;BME280;1100;52.014;8.540;2023-05-22T05:07:45;99970.34;;;15.83;73.95
2188;BME280;1100;52.014;8.540;2023-05-22T05:10:10;99965.03;;;15.85;73.97
2188;BME280;1100;52.014;8.540;2023-05-22T05:12:36;99962.81;;;15.89;74.05
2188;BME280;1100;52.014;8.540;2023-05-22T05:15:01;99972.31;;;15.92;74.17
2188;BME280;1100;52.014;8.540;2023-05-22T05:17:26;99952.69;;;15.92;74.18
2188;BME280;1100;52.014;8.540;2023-05-22T05:19:52;99956.53;;;15.94;74.10
2188;BME280;1100;52.014;8.540;2023-05-22T05:22:17;99951.72;;;15.95;74.29
2188;BME280;1100;52.014;8.540;2023-05-22T05:24:43;99952.03;;;15.97;74.33
2188;BME280;1100;52.014;8.540;2023-05-22T05:27:08;99952.63;;;16.01;74.11
2188;BME280;1100;52.014;8.540;2023-05-22T05:29:34;99957.56;;;16.06;74.21
2188;BME280;1100;52.014;8.540;2023-05-22T05:31:59;99955.34;;;16.11;74.57
2188;BME280;1100;52.014;8.540;2023-05-22T05:34:24;99952.84;;;16.13;74.36
2188;BME280;1100;52.014;8.540;2023-05-22T05:36:50;99961.06;;;16.16;74.37
2188;BME280;1100;52.014;8.540;2023-05-22T05:39:16;99959.31;;;16.19;74.18
2188;BME280;1100;52.014;8.540;2023-05-22T05:41:41;99969.59;;;16.22;74.21
2188;BME280;1100;52.014;8.540;2023-05-22T05:44:07;99967.66;;;16.28;74.34
2188;BME280;1100;52.014;8.540;2023-05-22T05:46:32;99963.88;;;16.31;74.30
2188;BME280;1100;52.014;8.540;2023-05-22T05:48:57;99966.00;;;16.37;74.30
2188;BME280;1100;52.014;8.540;2023-05-22T05:51:23;99961.72;;;16.41;74.07
2188;BME280;1100;52.014;8.540;2023-05-22T05:53:48;99964.16;;;16.49;74.27
2188;BME280;1100;52.014;8.540;2023-05-22T05:56:14;99963.78;;;16.56;74.34
2188;BME280;1100;52.014;8.540;2023-05-22T05:58:40;99960.06;;;16.65;74.19
2188;BME280;1100;52.014;8.540;2023-05-22T06:01:05;99959.69;;;16.72;74.11
2188;BME280;1100;52.014;8.540;2023-05-22T06:03:31;99960.84;;;16.80;74.02
2188;BME280;1100;52.014;8.540;2023-05-22T06:05:56;99961.69;;;16.87;73.96
2188;BME280;1100;52.014;8.540;2023-05-22T06:08:22;99959.47;;;16.91;73.83
2188;BME280;1100;52.014;8.540;2023-05-22T06:10:47;99962.34;;;16.97;73.93
2188;BME280;1100;52.014;8.540;2023-05-22T06:13:13;99957.03;;;16.99;74.01
2188;BME280;1100;52.014;8.540;2023-05-22T06:15:38;99956.81;;;17.02;73.89
2188;BME280;1100;52.014;8.540;2023-05-22T06:18:03;99962.44;;;17.02;73.99
2188;BME280;1100;52.014;8.540;2023-05-22T06:20:29;99957.91;;;17.05;73.52
2188;BME280;1100;52.014;8.540;2023-05-22T06:22:54;99960.69;;;17.05;73.89
2188;BME280;1100;52.014;8.540;2023-05-22T06:25:20;99951.50;;;17.04;73.96
2188;BME280;1100;52.014;8.540;2023-05-22T06:27:46;99955.56;;;17.03;73.94
2188;BME280;1100;52.014;8.540;2023-05-22T06:30:12;99953.03;;;17.05;73.87
2188;BME280;1100;52.014;8.540;2023-05-22T06:32:38;99958.66;;;17.05;73.72
2188;BME280;1100;52.014;8.540;2023-05-22T06:35:03;99956.72;;;17.12;73.91
2188;BME280;1100;52.014;8.540;2023-05-22T06:37:29;99954.50;;;17.16;73.77
2188;BME280;1100;52.014;8.540;2023-05-22T06:39:57;99954.09;;;17.23;73.87
2188;BME280;1100;52.014;8.540;2023-05-22T06:42:22;99952.97;;;17.36;73.82
2188;BME280;1100;52.014;8.540;2023-05-22T06:44:47;99951.59;;;17.46;74.10
2188;BME280;1100;52.014;8.540;2023-05-22T06:47:13;99958.88;;;17.59;73.64
2188;BME280;1100;52.014;8.540;2023-05-22T06:49:38;99958.25;;;17.70;73.64
2188;BME280;1100;52.014;8.540;2023-05-22T06:52:03;99958.09;;;17.79;73.43
2188;BME280;1100;52.014;8.540;2023-05-22T06:54:29;99955.13;;;17.88;73.29
2188;BME280;1100;52.014;8.540;2023-05-22T06:56:54;99957.78;;;17.98;73.24
2188;BME280;1100;52.014;8.540;2023-05-22T06:59:21;99955.56;;;18.08;73.09
2188;BME280;1100;52.014;8.540;2023-05-22T07:01:46;99961.56;;;18.15;72.93
2188;BME280;1100;52.014;8.540;2023-05-22T07:04:11;99955.78;;;18.25;72.94
2188;BME280;1100;52.014;8.540;2023-05-22T07:06:37;99964.13;;;18.40;72.89
2188;BME280;1100;52.014;8.540;2023-05-22T07:09:04;99962.19;;;18.58;72.74
2188;BME280;1100;52.014;8.540;2023-05-22T07:11:30;99965.09;;;18.69;72.69
2188;BME280;1100;52.014;8.540;2023-05-22T07:13:55;99959.47;;;18.69;72.47
2188;BME280;1100;52.014;8.540;2023-05-22T07:16:21;99963.84;;;18.70;72.40
2188;BME280;1100;52.014;8.540;2023-05-22T07:18:47;99970.75;;;18.69;72.54
2188;BME280;1100;52.014;8.540;2023-05-22T07:21:12;99972.06;;;18.74;72.36
2188;BME280;1100;52.014;8.540;2023-05-22T07:23:38;99968.75;;;18.75;72.38
2188;BME280;1100;52.014;8.540;2023-05-22T07:26:03;99968.03;;;18.80;72.21
2188;BME280;1100;52.014;8.540;2023-05-22T07:28:28;99965.19;;;18.80;72.10
2188;BME280;1100;52.014;8.540;2023-05-22T07:30:54;99968.31;;;18.83;72.20
2188;BME280;1100;52.014;8.540;2023-05-22T07:33:20;99963.19;;;18.87;71.87
2188;BME280;1100;52.014;8.540;2023-05-22T07:35:46;99970.69;;;18.96;72.03
2188;BME280;1100;52.014;8.540;2023-05-22T07:38:11;99953.59;;;19.05;71.93
2188;BME280;1100;52.014;8.540;2023-05-22T07:40:36;99960.66;;;19.27;71.71
2188;BME280;1100;52.014;8.540;2023-05-22T07:43:01;99960.47;;;19.42;71.74
2188;BME280;1100;52.014;8.540;2023-05-22T07:45:27;99962.91;;;19.72;71.43
2188;BME280;1100;52.014;8.540;2023-05-22T07:47:52;99965.59;;;20.04;71.58
2188;BME280;1100;52.014;8.540;2023-05-22T07:50:17;99960.25;;;20.41;71.19
2188;BME280;1100;52.014;8.540;2023-05-22T07:52:43;99963.06;;;20.70;70.95
2188;BME280;1100;52.014;8.540;2023-05-22T07:55:08;99965.66;;;21.02;70.43
2188;BME280;1100;52.014;8.540;2023-05-22T07:57:34;99958.16;;;21.16;70.17
2188;BME280;1100;52.014;8.540;2023-05-22T08:00:01;99961.47;;;21.20;69.68
2188;BME280;1100;52.014;8.540;2023-05-22T08:02:33;99967.94;;;20.98;69.59
2188;BME280;1100;52.014;8.540;2023-05-22T08:04:59;99963.31;;;20.89;69.69
2188;BME280;1100;52.014;8.540;2023-05-22T08:07:24;99973.09;;;20.88;69.62
2188;BME280;1100;52.014;8.540;2023-05-22T08:09:49;99963.59;;;20.79;69.37
2188;BME280;1100;52.014;8.540;2023-05-22T08:12:15;99970.25;;;20.82;69.67
2188;BME280;1100;52.014;8.540;2023-05-22T08:14:40;99965.13;;;20.92;69.33
2188;BME280;1100;52.014;8.540;2023-05-22T08:17:05;99970.72;;;21.15;69.25
2188;BME280;1100;52.014;8.540;2023-05-22T08:19:31;99976.84;;;21.42;69.34
2188;BME280;1100;52.014;8.540;2023-05-22T08:21:56;99964.63;;;21.82;69.13
2188;BME280;1100;52.014;8.540;2023-05-22T08:24:25;99976.22;;;22.20;68.54
2188;BME280;1100;52.014;8.540;2023-05-22T08:26:56;99972.38;;;22.54;68.38
2188;BME280;1100;52.014;8.540;2023-05-22T08:29:22;99967.91;;;22.70;67.75
2188;BME280;1100;52.014;8.540;2023-05-22T08:31:47;99966.94;;;22.56;67.40
2188;BME280;1100;52.014;8.540;2023-05-22T08:34:12;99969.09;;;22.44;67.45
2188;BME280;1100;52.014;8.540;2023-05-22T08:36:38;99968.72;;;22.65;67.72
2188;BME280;1100;52.014;8.540;2023-05-22T08:39:03;99965.16;;;22.89;67.53
2188;BME280;1100;52.014;8.540;2023-05-22T08:41:30;99965.47;;;23.11;67.33
2188;BME280;1100;52.014;8.540;2023-05-22T08:43:55;99954.69;;;23.28;67.24
2188;BME280;1100;52.014;8.540;2023-05-22T08:46:23;99961.19;;;23.48;66.43
2188;BME280;1100;52.014;8.540;2023-05-22T08:48:50;99964.56;;;23.66;66.45
2188;BME280;1100;52.014;8.540;2023-05-22T08:51:18;99964.19;;;23.75;65.82
2188;BME280;1100;52.014;8.540;2023-05-22T08:53:44;99961.34;;;23.75;65.87
2188;BME280;1100;52.014;8.540;2023-05-22T08:56:10;99954.00;;;23.86;65.76
2188;BME280;1100;52.014;8.540;2023-05-22T08:58:36;99952.94;;;23.89;65.63
2188;BME280;1100;52.014;8.540;2023-05-22T09:01:03;99955.78;;;23.89;65.71
2188;BME280;1100;52.014;8.540;2023-05-22T09:03:29;99949.72;;;23.98;65.54
2188;BME280;1100;52.014;8.540;2023-05-22T09:05:59;99949.00;;;24.11;65.33
2188;BME280;1100;52.014;8.540;2023-05-22T09:08:25;99946.00;;;24.23;64.97
2188;BME280;1100;52.014;8.540;2023-05-22T09:10:51;99951.97;;;24.38;64.08
2188;BME280;1100;52.014;8.540;2023-05-22T09:13:25;99943.38;;;24.44;64.57
2188;BME280;1100;52.014;8.540;2023-05-22T09:15:51;99948.22;;;24.63;64.26
2188;BME280;1100;52.014;8.540;2023-05-22T09:18:17;99951.97;;;24.85;64.49
2188;BME280;1100;52.014;8.540;2023-05-22T09:20:43;99953.31;;;24.97;64.09
2188;BME280;1100;52.014;8.540;2023-05-22T09:23:12;99952.44;;;24.89;62.42
2188;BME280;1100;52.014;8.540;2023-05-22T09:25:44;99951.34;;;24.92;62.58
2188;BME280;1100;52.014;8.540;2023-05-22T09:28:10;99949.59;;;25.03;62.87
2188;BME280;1100;52.014;8.540;2023-05-22T09:30:36;99953.66;;;25.21;63.43
2188;BME280;1100;52.014;8.540;2023-05-22T09:33:04;99954.94;;;25.47;63.27
2188;BME280;1100;52.014;8.540;2023-05-22T09:35:34;99944.50;;;25.77;62.89
2188;BME280;1100;52.014;8.540;2023-05-22T09:38:00;99938.72;;;25.82;62.85
2188;BME280;1100;52.014;8.540;2023-05-22T09:40:26;99944.50;;;25.90;62.44
2188;BME280;1100;52.014;8.540;2023-05-22T09:42:52;99946.66;;;25.97;62.03
2188;BME280;1100;52.014;8.540;2023-05-22T09:45:21;99946.81;;;26.13;62.15
2188;BME280;1100;52.014;8.540;2023-05-22T09:47:49;99947.19;;;26.31;62.11
2188;BME280;1100;52.014;8.540;2023-05-22T09:50:15;99941.22;;;26.42;61.26
2188;BME280;1100;52.014;8.540;2023-05-22T09:52:43;99944.53;;;26.33;61.38
2188;BME280;1100;52.014;8.540;2023-05-22T09:55:09;99938.03;;;26.46;61.69
2188;BME280;1100;52.014;8.540;2023-05-22T09:57:42;99949.25;;;26.52;61.30
2188;BME280;1100;52.014;8.540;2023-05-22T10:00:10;99943.94;;;26.48;60.68
2188;BME280;1100;52.014;8.540;2023-05-22T10:02:37;99938.34;;;26.42;59.92
2188;BME280;1100;52.014;8.540;2023-05-22T10:05:06;99934.09;;;26.14;59.24
2188;BME280;1100;52.014;8.540;2023-05-22T10:07:36;99940.59;;;26.36;60.52
2188;BME280;1100;52.014;8.540;2023-05-22T10:10:06;99945.63;;;26.72;60.63
2188;BME280;1100;52.014;8.540;2023-05-22T10:12:43;99944.84;;;26.93;59.49
2188;BME280;1100;52.014;8.540;2023-05-22T10:15:10;99946.53;;;26.89;59.48
2188;BME280;1100;52.014;8.540;2023-05-22T10:17:37;99937.13;;;27.02;59.32
2188;BME280;1100;52.014;8.540;2023-05-22T10:20:03;99937.13;;;27.02;58.34
2188;BME280;1100;52.014;8.540;2023-05-22T10:22:36;99932.00;;;27.00;58.76
2188;BME280;1100;52.014;8.540;2023-05-22T10:25:02;99933.78;;;27.11;59.05
2188;BME280;1100;52.014;8.540;2023-05-22T10:27:27;99934.78;;;27.21;58.83
2188;BME280;1100;52.014;8.540;2023-05-22T10:29:59;99927.94;;;27.24;58.48
2188;BME280;1100;52.014;8.540;2023-05-22T10:32:34;99924.28;;;27.16;57.14
2188;BME280;1100;52.014;8.540;2023-05-22T10:35:21;99930.31;;;27.05;56.47
2188;BME280;1100;52.014;8.540;2023-05-22T10:37:51;99936.56;;;27.03;57.06
2188;BME280;1100;52.014;8.540;2023-05-22T10:40:29;99924.47;;;27.18;57.11
2188;BME280;1100;52.014;8.540;2023-05-22T10:42:57;99925.09;;;27.24;56.63
2188;BME280;1100;52.014;8.540;2023-05-22T10:45:25;99920.34;;;27.27;56.51
2188;BME280;1100;52.014;8.540;2023-05-22T10:48:07;99922.59;;;27.21;56.33
2188;BME280;1100;52.014;8.540;2023-05-22T10:50:34;99913.59;;;27.09;56.80
2188;BME280;1100;52.014;8.540;2023-05-22T10:55:58;99925.22;;;27.11;56.65
2188;BME280;1100;52.014;8.540;2023-05-22T10:58:31;99919.28;;;26.80;56.21
2188;BME280;1100;52.014;8.540;2023-05-22T11:03:51;99911.41;;;26.94;57.16
2188;BME280;1100;52.014;8.540;2023-05-22T11:06:38;99918.53;;;26.79;56.39
2188;BME280;1100;52.014;8.540;2023-05-22T11:09:30;99912.59;;;26.48;57.51
2188;BME280;1100;52.014;8.540;2023-05-22T11:12:25;99915.56;;;25.99;57.73
2188;BME280;1100;52.014;8.540;2023-05-22T11:14:56;99925.06;;;25.54;57.87
2188;BME280;1100;52.014;8.540;2023-05-22T11:17:27;99917.03;;;25.04;58.27
2188;BME280;1100;52.014;8.540;2023-05-22T11:20:00;99921.69;;;24.87;58.41
2188;BME280;1100;52.014;8.540;2023-05-22T11:22:59;99917.34;;;25.27;58.79
2188;BME280;1100;52.014;8.540;2023-05-22T11:25:25;99907.56;;;25.63;58.61
2188;BME280;1100;52.014;8.540;2023-05-22T11:27:53;99914.53;;;26.10;58.95
2188;BME280;1100;52.014;8.540;2023-05-22T11:30:19;99908.88;;;26.61;58.88
2188;BME280;1100;52.014;8.540;2023-05-22T11:32:45;99912.09;;;26.86;58.33
2188;BME280;1100;52.014;8.540;2023-05-22T11:35:19;99905.44;;;26.84;58.00
2188;BME280;1100;52.014;8.540;2023-05-22T11:37:45;99900.75;;;26.94;58.40
2188;BME280;1100;52.014;8.540;2023-05-22T11:40:13;99910.22;;;27.18;58.85
2188;BME280;1100;52.014;8.540;2023-05-22T11:42:39;99894.72;;;27.43;58.05
2188;BME280;1100;52.014;8.540;2023-05-22T11:45:05;99896.88;;;27.58;58.34
2188;BME280;1100;52.014;8.540;2023-05-22T11:47:31;99897.84;;;27.60;58.01
2188;BME280;1100;52.014;8.540;2023-05-22T11:49:57;99899.88;;;27.52;57.68
2188;BME280;1100;52.014;8.540;2023-05-22T11:52:22;99897.50;;;27.27;58.12
2188;BME280;1100;52.014;8.540;2023-05-22T11:54:50;99893.03;;;27.03;57.72
2188;BME280;1100;52.014;8.540;2023-05-22T11:57:15;99891.63;;;26.96;57.88
2188;BME280;1100;52.014;8.540;2023-05-22T11:59:46;99888.78;;;26.67;58.06
2188;BME280;1100;52.014;8.540;2023-05-22T12:02:13;99879.47;;;26.37;57.93
2188;BME280;1100;52.014;8.540;2023-05-22T12:04:39;99881.72;;;25.96;58.57
2188;BME280;1100;52.014;8.540;2023-05-22T12:07:05;99878.78;;;25.67;58.75
2188;BME280;1100;52.014;8.540;2023-05-22T12:09:31;99878.47;;;25.43;58.91
2188;BME280;1100;52.014;8.540;2023-05-22T12:11:56;99873.69;;;25.38;58.96
2188;BME280;1100;52.014;8.540;2023-05-22T12:14:26;99875.25;;;25.60;59.45
2188;BME280;1100;52.014;8.540;2023-05-22T12:16:51;99867.66;;;25.77;58.80
2188;BME280;1100;52.014;8.540;2023-05-22T12:19:17;99873.31;;;25.90;58.90
2188;BME280;1100;52.014;8.540;2023-05-22T12:21:43;99872.84;;;25.99;59.16
2188;BME280;1100;52.014;8.540;2023-05-22T12:24:09;99867.78;;;26.06;59.08
2188;BME280;1100;52.014;8.540;2023-05-22T12:26:35;99873.41;;;25.98;59.08
2188;BME280;1100;52.014;8.540;2023-05-22T12:29:02;99877.06;;;25.85;59.32
2188;BME280;1100;52.014;8.540;2023-05-22T12:31:33;99877.34;;;25.60;59.21
2188;BME280;1100;52.014;8.540;2023-05-22T12:34:02;99878.47;;;25.43;59.92
2188;BME280;1100;52.014;8.540;2023-05-22T12:38:57;99871.16;;;25.34;60.33
2188;BME280;1100;52.014;8.540;2023-05-22T12:41:22;99875.97;;;25.26;60.16
2188;BME280;1100;52.014;8.540;2023-05-22T12:43:48;99879.63;;;25.13;60.27
2188;BME280;1100;52.014;8.540;2023-05-22T12:46:13;99878.41;;;24.95;60.24
2188;BME280;1100;52.014;8.540;2023-05-22T12:48:38;99874.78;;;24.81;60.39
2188;BME280;1100;52.014;8.540;2023-05-22T12:51:04;99868.00;;;24.70;60.53
2188;BME280;1100;52.014;8.540;2023-05-22T12:53:29;99872.59;;;24.87;61.08
2188;BME280;1100;52.014;8.540;2023-05-22T12:55:54;99870.63;;;25.09;60.96
2188;BME280;1100;52.014;8.540;2023-05-22T12:58:20;99880.47;;;25.21;60.83
2188;BME280;1100;52.014;8.540;2023-05-22T13:00:45;99879.41;;;25.11;61.25
2188;BME280;1100;52.014;8.540;2023-05-22T13:03:10;99870.84;;;24.84;61.11
2188;BME280;1100;52.014;8.540;2023-05-22T13:05:36;99877.38;;;24.65;61.24
2188;BME280;1100;52.014;8.540;2023-05-22T13:08:01;99880.34;;;24.59;61.64
2188;BME280;1100;52.014;8.540;2023-05-22T13:10:27;99857.72;;;24.67;61.72
2188;BME280;1100;52.014;8.540;2023-05-22T13:12:53;99871.50;;;24.76;62.09
2188;BME280;1100;52.014;8.540;2023-05-22T13:15:18;99871.53;;;24.90;62.08
2188;BME280;1100;52.014;8.540;2023-05-22T13:17:43;99865.41;;;24.99;62.25
2188;BME280;1100;52.014;8.540;2023-05-22T13:20:10;99868.44;;;25.15;62.26
2188;BME280;1100;52.014;8.540;2023-05-22T13:22:35;99867.97;;;25.38;61.96
2188;BME280;1100;52.014;8.540;2023-05-22T13:25:00;99863.34;;;25.48;61.64
2188;BME280;1100;52.014;8.540;2023-05-22T13:27:26;99860.41;;;25.54;61.63
2188;BME280;1100;52.014;8.540;2023-05-22T13:29:52;99863.56;;;25.64;61.69
2188;BME280;1100;52.014;8.540;2023-05-22T13:32:18;99862.03;;;25.63;61.16
2188;BME280;1100;52.014;8.540;2023-05-22T13:34:43;99865.53;;;25.56;61.10
2188;BME280;1100;52.014;8.540;2023-05-22T13:37:09;99869.31;;;25.37;61.41